Time;durP1;ratioP1;P1;durP2;ratioP2;P2;SDS_P1;SDS_P2;PMS_P1;PMS_P2;Temp;Humidity;BMP_temperature;BMP_pressure;BME280_temperature;BME280_humidity;BME280_pressure;Samples;Min_cycle;Max_cycle;Signal;HPM_P1;HPM_P2
2022/04/18 00:02:42;;;;;;;4.72;3.08;;;;;;;;;;6258438;28;20068;-81
2022/04/18 00:05:44;;;;;;;6.50;3.42;;;;;;;;;;6283236;28;20678;-80
2022/04/18 00:08:45;;;;;;;5.38;3.38;;;;;;;;;;6285237;28;20123;-80
2022/04/18 00:11:47;;;;;;;7.35;3.80;;;;;;;;;;6259630;28;20183;-81
2022/04/18 00:14:49;;;;;;;11.63;5.25;;;;;;;;;;6270212;28;20209;-81
2022/04/18 00:17:50;;;;;;;10.02;4.90;;;;;;;;;;6260167;28;20068;-82
2022/04/18 00:20:52;;;;;;;8.55;4.25;;;;;;;;;;6255247;28;20174;-79
2022/04/18 00:23:53;;;;;;;6.38;3.97;;;;;;;;;;6280352;28;20186;-81
2022/04/18 00:26:55;;;;;;;7.82;4.00;;;;;;;;;;6262894;28;20090;-80
2022/04/18 00:29:57;;;;;;;5.28;3.47;;;;;;;;;;6273625;28;20498;-80
2022/04/18 00:32:58;;;;;;;6.20;3.50;;;;;;;;;;6287315;28;20100;-82
2022/04/18 00:36:01;;;;;;;6.20;2.75;;;;;;;;;;6300256;28;20055;-82
2022/04/18 00:39:02;;;;;;;5.68;3.35;;;;;;;;;;6275418;28;20052;-81
2022/04/18 00:42:04;;;;;;;7.97;3.55;;;;;;;;;;6269224;28;20069;-81
2022/04/18 00:45:06;;;;;;;5.28;3.00;;;;;;;;;;6278196;28;20743;-80
2022/04/18 00:48:08;;;;;;;6.68;3.78;;;;;;;;;;6279519;28;20525;-80
2022/04/18 00:51:19;;;;;;;6.35;3.42;;;;;;;;;;6264561;28;20067;-81
2022/04/18 00:54:21;;;;;;;5.43;3.55;;;;;;;;;;6281264;28;20417;-81
2022/04/18 00:57:24;;;;;;;5.70;3.38;;;;;;;;;;6281456;28;20505;-81
2022/04/18 01:00:26;;;;;;;9.48;3.30;;;;;;;;;;6281755;28;20095;-81
2022/04/18 01:03:30;;;;;;;4.10;2.72;;;;;;;;;;6284187;28;20056;-81
2022/04/18 01:06:33;;;;;;;6.70;3.00;;;;;;;;;;6285306;28;20088;-81
2022/04/18 01:09:35;;;;;;;7.45;3.10;;;;;;;;;;6296857;28;20106;-81
2022/04/18 01:12:38;;;;;;;3.97;2.75;;;;;;;;;;6262556;28;20079;-81
2022/04/18 01:15:54;;;;;;;3.40;2.30;;;;;;;;;;6280392;28;20049;-81
2022/04/18 01:19:12;;;;;;;4.15;2.47;;;;;;;;;;6285731;28;20123;-81
2022/04/18 01:22:33;;;;;;;5.18;2.90;;;;;;;;;;6287685;28;20045;-82
2022/04/18 01:29:13;;;;;;;4.38;2.67;;;;;;;;;;6288836;28;20045;-80
2022/04/18 01:32:18;;;;;;;4.22;2.42;;;;;;;;;;6288568;28;20100;-79
2022/04/18 01:35:20;;;;;;;3.63;2.55;;;;;;;;;;6292251;28;20074;-80
2022/04/18 01:38:23;;;;;;;3.58;2.40;;;;;;;;;;6288559;28;20068;-80
2022/04/18 01:41:25;;;;;;;3.70;2.67;;;;;;;;;;6287227;28;20068;-80
2022/04/18 01:44:27;;;;;;;5.30;2.40;;;;;;;;;;6267127;28;20048;-81
2022/04/18 01:47:29;;;;;;;4.43;2.15;;;;;;;;;;6286822;28;20440;-80
2022/04/18 01:50:32;;;;;;;3.07;2.00;;;;;;;;;;6288629;28;20044;-80
2022/04/18 01:53:33;;;;;;;3.38;2.20;;;;;;;;;;6286486;28;20363;-79
2022/04/18 01:56:35;;;;;;;6.07;3.03;;;;;;;;;;6301396;28;20119;-79
2022/04/18 01:59:39;;;;;;;6.47;3.40;;;;;;;;;;6307853;28;20469;-81
2022/04/18 02:02:40;;;;;;;5.97;3.03;;;;;;;;;;6279645;28;20044;-80
2022/04/18 02:05:44;;;;;;;6.15;3.10;;;;;;;;;;6275964;28;20051;-80
2022/04/18 02:08:46;;;;;;;6.00;3.00;;;;;;;;;;6286507;28;20071;-80
2022/04/18 02:11:49;;;;;;;4.10;2.70;;;;;;;;;;6268606;28;20051;-80
2022/04/18 02:14:51;;;;;;;3.88;2.40;;;;;;;;;;6287245;28;20107;-80
2022/04/18 02:17:55;;;;;;;4.72;2.70;;;;;;;;;;6280527;28;20045;-80
2022/04/18 02:20:57;;;;;;;3.63;2.93;;;;;;;;;;6280504;28;20052;-79
2022/04/18 02:23:59;;;;;;;7.82;3.45;;;;;;;;;;6264900;28;20052;-81
2022/04/18 02:27:00;;;;;;;5.18;2.72;;;;;;;;;;6270551;28;20098;-80
2022/04/18 02:30:05;;;;;;;5.00;2.70;;;;;;;;;;6263039;28;20083;-81
2022/04/18 02:33:07;;;;;;;5.55;2.90;;;;;;;;;;6310336;28;20064;-79
2022/04/18 02:36:09;;;;;;;3.53;2.50;;;;;;;;;;6289623;28;20048;-80
2022/04/18 02:39:11;;;;;;;5.43;2.80;;;;;;;;;;6283767;28;20140;-80
2022/04/18 02:42:13;;;;;;;4.50;3.00;;;;;;;;;;6298788;28;20052;-80
2022/04/18 02:45:19;;;;;;;5.20;2.88;;;;;;;;;;6307359;28;20395;-80
2022/04/18 02:48:43;;;;;;;4.30;2.30;;;;;;;;;;6266340;28;20063;-80
2022/04/18 02:51:48;;;;;;;6.15;2.42;;;;;;;;;;6265090;28;20147;-80
2022/04/18 02:54:52;;;;;;;4.10;2.40;;;;;;;;;;6278744;28;21019;-80
2022/04/18 02:57:54;;;;;;;4.57;2.55;;;;;;;;;;6289305;28;20390;-80
2022/04/18 03:00:56;;;;;;;4.72;2.50;;;;;;;;;;6278043;28;20456;-80
2022/04/18 03:03:58;;;;;;;5.03;2.60;;;;;;;;;;6295262;28;20446;-80
2022/04/18 03:07:01;;;;;;;4.30;2.42;;;;;;;;;;6259933;28;20046;-79
2022/04/18 03:10:04;;;;;;;5.40;2.47;;;;;;;;;;6262681;28;20051;-80
2022/04/18 03:13:05;;;;;;;3.92;2.40;;;;;;;;;;6301082;28;20174;-79
2022/04/18 03:16:07;;;;;;;2.13;1.88;;;;;;;;;;6276926;28;20102;-80
2022/04/18 03:19:09;;;;;;;4.47;2.58;;;;;;;;;;6263392;28;20047;-80
2022/04/18 03:22:21;;;;;;;4.53;2.42;;;;;;;;;;6275321;28;20052;-79
2022/04/18 03:25:32;;;;;;;3.70;1.98;;;;;;;;;;6288659;28;20047;-80
2022/04/18 03:28:34;;;;;;;4.07;2.47;;;;;;;;;;6301606;28;20047;-80
2022/04/18 03:31:36;;;;;;;5.35;3.00;;;;;;;;;;6265539;28;20040;-81
2022/04/18 03:34:38;;;;;;;4.07;2.40;;;;;;;;;;6301624;28;20195;-80
2022/04/18 03:41:00;;;;;;;5.90;2.47;;;;;;;;;;6260865;28;20099;-79
2022/04/18 03:44:01;;;;;;;5.55;2.63;;;;;;;;;;6279366;28;20076;-81
2022/04/18 03:47:03;;;;;;;4.82;2.83;;;;;;;;;;6280458;28;20051;-81
2022/04/18 03:50:07;;;;;;;4.32;2.40;;;;;;;;;;6288722;28;20699;-81
2022/04/18 03:53:12;;;;;;;4.35;2.60;;;;;;;;;;6282745;28;20051;-81
2022/04/18 03:56:14;;;;;;;3.33;2.15;;;;;;;;;;6281483;28;20068;-81
2022/04/18 03:59:45;;;;;;;4.35;2.40;;;;;;;;;;6277449;27;20048;-81
2022/04/18 04:02:47;;;;;;;3.45;2.25;;;;;;;;;;6286161;28;20532;-80
2022/04/18 04:05:55;;;;;;;3.92;2.55;;;;;;;;;;6302044;28;20032;-80
2022/04/18 04:08:58;;;;;;;3.70;2.33;;;;;;;;;;6282783;28;20044;-80
2022/04/18 04:12:06;;;;;;;4.13;2.83;;;;;;;;;;6260790;28;20182;-81
2022/04/18 04:15:22;;;;;;;4.03;2.83;;;;;;;;;;6270644;28;20044;-80
2022/04/18 04:18:32;;;;;;;4.85;2.67;;;;;;;;;;6277261;28;20130;-80
2022/04/18 04:21:40;;;;;;;3.65;2.42;;;;;;;;;;6297162;28;20045;-80
2022/04/18 04:24:43;;;;;;;4.00;2.90;;;;;;;;;;6312711;28;20082;-80
2022/04/18 04:27:45;;;;;;;3.75;2.33;;;;;;;;;;6284690;28;20188;-80
2022/04/18 04:30:47;;;;;;;3.53;2.42;;;;;;;;;;6290505;28;20132;-79
2022/04/18 04:33:48;;;;;;;6.38;2.25;;;;;;;;;;6256205;28;20041;-79
2022/04/18 04:36:50;;;;;;;3.03;2.38;;;;;;;;;;6278520;28;20040;-79
2022/04/18 04:39:55;;;;;;;4.60;2.25;;;;;;;;;;6270778;28;20041;-79
2022/04/18 04:43:00;;;;;;;4.93;2.35;;;;;;;;;;6278443;28;20131;-79
2022/04/18 04:46:04;;;;;;;5.18;2.47;;;;;;;;;;6279583;28;20642;-78
2022/04/18 04:49:10;;;;;;;5.28;2.67;;;;;;;;;;6285849;28;20048;-79
2022/04/18 04:52:17;;;;;;;4.00;2.50;;;;;;;;;;6303217;28;20045;-79
2022/04/18 04:55:20;;;;;;;4.10;2.70;;;;;;;;;;6276038;28;20040;-79
2022/04/18 04:58:21;;;;;;;3.88;2.60;;;;;;;;;;6307232;28;20405;-79
2022/04/18 05:01:30;;;;;;;3.90;2.28;;;;;;;;;;6287654;28;20044;-79
2022/04/18 05:04:41;;;;;;;3.22;2.30;;;;;;;;;;6286132;28;20117;-81
2022/04/18 05:07:44;;;;;;;3.40;2.60;;;;;;;;;;6278474;28;20052;-80
2022/04/18 05:10:50;;;;;;;3.65;2.33;;;;;;;;;;6247180;28;20187;-80
2022/04/18 05:14:00;;;;;;;7.15;2.90;;;;;;;;;;6237886;28;20057;-79
2022/04/18 05:17:18;;;;;;;4.50;3.15;;;;;;;;;;6238757;28;20049;-79
2022/04/18 05:20:28;;;;;;;4.85;3.00;;;;;;;;;;6279847;28;20064;-80
2022/04/18 05:23:31;;;;;;;5.00;2.50;;;;;;;;;;6302163;28;20497;-81
2022/04/18 05:26:34;;;;;;;5.13;2.42;;;;;;;;;;6269503;28;20044;-79
2022/04/18 05:29:35;;;;;;;4.85;3.05;;;;;;;;;;6262648;28;20041;-81
2022/04/18 05:32:37;;;;;;;4.85;2.80;;;;;;;;;;6280932;28;20100;-80
2022/04/18 05:35:43;;;;;;;4.22;2.90;;;;;;;;;;6293450;28;20053;-81
2022/04/18 05:38:47;;;;;;;5.03;2.85;;;;;;;;;;6290048;28;20048;-80
2022/04/18 05:41:53;;;;;;;5.68;3.58;;;;;;;;;;6287259;28;20036;-80
2022/04/18 05:44:57;;;;;;;4.95;3.17;;;;;;;;;;6285927;28;20048;-81
2022/04/18 05:47:59;;;;;;;4.57;2.90;;;;;;;;;;6264857;28;20523;-81
2022/04/18 05:51:05;;;;;;;4.43;3.50;;;;;;;;;;6244739;28;20052;-81
2022/04/18 05:54:07;;;;;;;4.28;3.17;;;;;;;;;;6253408;28;20100;-81
2022/04/18 05:57:12;;;;;;;5.10;3.13;;;;;;;;;;6282157;28;20043;-80
2022/04/18 06:00:24;;;;;;;7.28;3.90;;;;;;;;;;6286553;28;20041;-80
2022/04/18 06:03:30;;;;;;;6.28;3.78;;;;;;;;;;6304344;27;20036;-78
2022/04/18 06:06:33;;;;;;;5.57;3.57;;;;;;;;;;6286429;28;20079;-80
2022/04/18 06:09:34;;;;;;;6.47;3.20;;;;;;;;;;6285631;28;20494;-79
2022/04/18 06:12:36;;;;;;;4.15;3.25;;;;;;;;;;6286714;28;20036;-80
2022/04/18 06:15:39;;;;;;;6.38;3.05;;;;;;;;;;6280289;28;20060;-83
2022/04/18 06:18:41;;;;;;;4.40;3.35;;;;;;;;;;6279784;28;20049;-79
2022/04/18 06:21:48;;;;;;;4.82;3.28;;;;;;;;;;6278556;28;20044;-80
2022/04/18 06:24:50;;;;;;;5.88;3.10;;;;;;;;;;6278268;27;20036;-79
2022/04/18 06:27:58;;;;;;;4.93;3.13;;;;;;;;;;6242107;28;20056;-80
2022/04/18 06:31:10;;;;;;;5.22;3.45;;;;;;;;;;6238201;28;20471;-81
2022/04/18 06:34:21;;;;;;;5.38;3.22;;;;;;;;;;6232788;28;20045;-81
2022/04/18 06:37:24;;;;;;;5.13;2.85;;;;;;;;;;6277022;28;20118;-80
2022/04/18 06:40:52;;;;;;;5.70;3.17;;;;;;;;;;6254638;28;20048;-79
2022/04/18 06:43:55;;;;;;;5.37;3.10;;;;;;;;;;6261459;28;20037;-79
2022/04/18 06:47:02;;;;;;;5.97;3.30;;;;;;;;;;6276749;28;20123;-80
2022/04/18 06:50:22;;;;;;;5.65;3.50;;;;;;;;;;6288184;28;20048;-80
2022/04/18 06:53:46;;;;;;;5.10;3.17;;;;;;;;;;6278389;28;20040;-81
2022/04/18 06:57:07;;;;;;;4.78;2.85;;;;;;;;;;6278433;28;20078;-81
2022/04/18 07:00:14;;;;;;;4.63;3.03;;;;;;;;;;6282939;28;20078;-80
2022/04/18 07:03:16;;;;;;;4.97;3.20;;;;;;;;;;6297659;28;20044;-80
2022/04/18 07:06:18;;;;;;;6.03;3.00;;;;;;;;;;6282412;28;20041;-79
2022/04/18 07:09:21;;;;;;;5.82;3.17;;;;;;;;;;6283323;28;20048;-79
2022/04/18 07:12:25;;;;;;;5.10;3.17;;;;;;;;;;6270957;28;20063;-78
2022/04/18 07:15:27;;;;;;;3.97;2.70;;;;;;;;;;6288619;28;20052;-80
2022/04/18 07:18:34;;;;;;;2.95;2.15;;;;;;;;;;6288564;28;20045;-78
2022/04/18 07:21:41;;;;;;;3.72;2.47;;;;;;;;;;6283923;28;20220;-79
2022/04/18 07:24:43;;;;;;;3.45;2.58;;;;;;;;;;6283051;28;20041;-78
2022/04/18 07:27:45;;;;;;;3.28;2.20;;;;;;;;;;6305387;28;20381;-79
2022/04/18 07:30:48;;;;;;;3.90;2.40;;;;;;;;;;6295177;28;20041;-80
2022/04/18 07:33:49;;;;;;;3.05;2.30;;;;;;;;;;6279136;28;20627;-80
2022/04/18 07:36:54;;;;;;;4.03;2.28;;;;;;;;;;6300474;28;20055;-79
2022/04/18 07:39:56;;;;;;;3.00;2.28;;;;;;;;;;6288928;28;20048;-80
2022/04/18 07:42:58;;;;;;;2.95;2.28;;;;;;;;;;6295186;28;20048;-79
2022/04/18 07:46:03;;;;;;;3.80;2.30;;;;;;;;;;6265837;28;20048;-79
2022/04/18 07:49:09;;;;;;;3.03;2.40;;;;;;;;;;6287879;28;20064;-79
2022/04/18 07:52:16;;;;;;;3.30;2.28;;;;;;;;;;6303837;28;20033;-79
2022/04/18 07:55:31;;;;;;;2.90;2.40;;;;;;;;;;6287608;28;20048;-79
2022/04/18 07:58:34;;;;;;;3.45;2.10;;;;;;;;;;6289908;28;20055;-79
2022/04/18 08:01:38;;;;;;;3.58;2.33;;;;;;;;;;6278372;28;20055;-78
2022/04/18 08:04:41;;;;;;;2.67;1.85;;;;;;;;;;6284062;28;20059;-77
2022/04/18 08:07:47;;;;;;;3.30;2.40;;;;;;;;;;6305621;28;20436;-78
2022/04/18 08:10:50;;;;;;;2.53;2.28;;;;;;;;;;6275594;28;20052;-78
2022/04/18 08:13:53;;;;;;;3.03;2.22;;;;;;;;;;6295054;28;20153;-79
2022/04/18 08:17:21;;;;;;;2.20;1.80;;;;;;;;;;6273625;27;20044;-77
2022/04/18 08:20:31;;;;;;;3.08;2.00;;;;;;;;;;6256561;28;20044;-78
2022/04/18 08:23:35;;;;;;;3.78;2.35;;;;;;;;;;6271659;27;20163;-80
2022/04/18 08:26:55;;;;;;;4.25;2.10;;;;;;;;;;6284809;27;20066;-81
2022/04/18 08:30:06;;;;;;;2.53;2.00;;;;;;;;;;6289439;27;20040;-81
2022/04/18 08:33:24;;;;;;;3.00;2.08;;;;;;;;;;6284132;28;20044;-81
2022/04/18 08:36:26;;;;;;;2.67;1.90;;;;;;;;;;6302887;28;20086;-79
2022/04/18 08:39:31;;;;;;;4.18;2.20;;;;;;;;;;6283898;28;20506;-80
2022/04/18 08:42:40;;;;;;;3.53;2.00;;;;;;;;;;6283869;28;20059;-80
2022/04/18 08:45:43;;;;;;;3.58;2.05;;;;;;;;;;6269094;28;20037;-79
2022/04/18 08:55:34;;;;;;;4.28;2.30;;;;;;;;;;6282055;28;20052;-79
2022/04/18 08:58:48;;;;;;;3.20;2.00;;;;;;;;;;6272213;28;20052;-79
2022/04/18 09:01:52;;;;;;;2.38;1.92;;;;;;;;;;6299460;28;20528;-81
2022/04/18 09:05:12;;;;;;;3.78;2.13;;;;;;;;;;6296016;28;20057;-81
2022/04/18 09:08:14;;;;;;;3.92;2.03;;;;;;;;;;6283978;28;20409;-77
2022/04/18 09:11:29;;;;;;;2.72;2.20;;;;;;;;;;6286840;28;20067;-78
2022/04/18 09:14:34;;;;;;;3.65;2.05;;;;;;;;;;6285089;28;20113;-79
2022/04/18 09:17:37;;;;;;;3.50;1.92;;;;;;;;;;6277806;28;20056;-78
2022/04/18 09:20:58;;;;;;;2.17;1.77;;;;;;;;;;6263184;28;20040;-79
2022/04/18 09:24:04;;;;;;;3.25;1.83;;;;;;;;;;6274374;28;20073;-79
2022/04/18 09:27:24;;;;;;;2.50;1.60;;;;;;;;;;6280172;28;20417;-79
2022/04/18 09:30:32;;;;;;;3.25;1.90;;;;;;;;;;6278111;28;20048;-78
2022/04/18 09:33:37;;;;;;;3.20;2.20;;;;;;;;;;6253332;28;20060;-79
2022/04/18 09:36:41;;;;;;;2.55;2.03;;;;;;;;;;6237669;28;20064;-81
2022/04/18 09:39:53;;;;;;;3.83;1.98;;;;;;;;;;6279455;28;20056;-79
2022/04/18 09:42:56;;;;;;;5.03;2.20;;;;;;;;;;6279062;28;20040;-78
2022/04/18 09:46:01;;;;;;;3.45;2.20;;;;;;;;;;6278690;28;20074;-79
2022/04/18 09:49:04;;;;;;;3.20;2.20;;;;;;;;;;6257208;28;20053;-84
2022/04/18 09:52:11;;;;;;;3.97;1.85;;;;;;;;;;6241605;28;20702;-79
2022/04/18 09:55:14;;;;;;;2.97;2.13;;;;;;;;;;6263789;28;20111;-78
2022/04/18 09:58:16;;;;;;;3.42;2.10;;;;;;;;;;6276522;28;20063;-79
2022/04/18 10:01:38;;;;;;;2.90;2.10;;;;;;;;;;6278016;28;20772;-78
2022/04/18 10:04:40;;;;;;;3.08;2.25;;;;;;;;;;6283687;28;20049;-78
2022/04/18 10:07:42;;;;;;;3.28;2.10;;;;;;;;;;6282529;28;20060;-79
2022/04/18 10:10:44;;;;;;;3.30;2.15;;;;;;;;;;6274862;28;20044;-79
2022/04/18 10:13:47;;;;;;;2.58;1.77;;;;;;;;;;6282275;28;20114;-80
2022/04/18 10:16:48;;;;;;;2.83;2.17;;;;;;;;;;6270428;28;20103;-79
2022/04/18 10:20:31;;;;;;;3.47;1.95;;;;;;;;;;6260618;28;20048;-78
2022/04/18 10:23:33;;;;;;;3.08;1.85;;;;;;;;;;6262899;28;20568;-79
2022/04/18 10:27:12;;;;;;;3.33;1.90;;;;;;;;;;6265077;28;20045;-79
2022/04/18 10:30:15;;;;;;;2.00;1.65;;;;;;;;;;6263957;28;20703;-81
2022/04/18 10:33:24;;;;;;;;;;;;;;;;;;6285880;28;20083;-80
2022/04/18 10:36:34;;;;;;;2.72;1.75;;;;;;;;;;6288727;28;20416;-78
2022/04/18 10:40:04;;;;;;;4.35;1.90;;;;;;;;;;6284283;28;20051;-79
2022/04/18 10:43:13;;;;;;;2.20;1.75;;;;;;;;;;6270273;28;20132;-80
2022/04/18 10:46:18;;;;;;;2.25;1.98;;;;;;;;;;6271496;28;20181;-80
2022/04/18 10:49:23;;;;;;;2.25;1.75;;;;;;;;;;6272321;28;20177;-79
2022/04/18 10:52:27;;;;;;;3.30;1.80;;;;;;;;;;6283394;28;20795;-79
2022/04/18 10:55:29;;;;;;;2.97;1.77;;;;;;;;;;6274322;28;20041;-78
2022/04/18 10:58:34;;;;;;;2.80;1.60;;;;;;;;;;6256621;28;20041;-80
2022/04/18 11:01:39;;;;;;;3.38;1.63;;;;;;;;;;6260197;28;20052;-79
2022/04/18 11:04:48;;;;;;;2.90;1.65;;;;;;;;;;6282156;28;20044;-82
2022/04/18 11:07:49;;;;;;;2.22;1.40;;;;;;;;;;6282001;28;20135;-79
2022/04/18 11:10:51;;;;;;;1.75;1.48;;;;;;;;;;6268576;28;20132;-78
2022/04/18 11:13:53;;;;;;;2.70;1.60;;;;;;;;;;6261265;28;20186;-79
2022/04/18 11:16:56;;;;;;;2.22;1.50;;;;;;;;;;6265182;28;20903;-79
2022/04/18 11:20:17;;;;;;;;;;;;;;;;;;6257975;28;20128;-79
2022/04/18 11:23:30;;;;;;;2.45;1.50;;;;;;;;;;6259997;28;19993;-79
2022/04/18 11:26:32;;;;;;;1.70;1.30;;;;;;;;;;6275490;28;20202;-80
2022/04/18 11:29:33;;;;;;;5.85;1.50;;;;;;;;;;6255775;28;20049;-79
2022/04/18 11:32:38;;;;;;;2.75;1.42;;;;;;;;;;6227683;28;20208;-80
2022/04/18 11:35:45;;;;;;;2.17;1.50;;;;;;;;;;6232481;28;20099;-79
2022/04/18 11:38:47;;;;;;;2.90;1.50;;;;;;;;;;6233020;28;20046;-79
2022/04/18 11:41:49;;;;;;;1.85;1.48;;;;;;;;;;6232415;28;20144;-79
2022/04/18 11:44:52;;;;;;;2.17;1.67;;;;;;;;;;6230458;28;20367;-78
2022/04/18 11:48:02;;;;;;;2.47;1.80;;;;;;;;;;6270854;28;20894;-79
2022/04/18 11:51:06;;;;;;;3.03;1.58;;;;;;;;;;6279648;28;20197;-79
2022/04/18 11:54:08;;;;;;;2.45;1.58;;;;;;;;;;6282808;28;20428;-79
2022/04/18 11:57:09;;;;;;;2.10;1.23;;;;;;;;;;6259001;28;20090;-79
2022/04/18 12:00:13;;;;;;;1.70;1.60;;;;;;;;;;6257006;28;20122;-79
2022/04/18 12:06:47;;;;;;;3.42;1.90;;;;;;;;;;6281107;28;20051;-78
2022/04/18 12:09:49;;;;;;;2.58;1.60;;;;;;;;;;6271372;28;20045;-78
2022/04/18 12:12:52;;;;;;;2.30;1.70;;;;;;;;;;6252610;28;20087;-78
2022/04/18 12:15:53;;;;;;;1.77;1.50;;;;;;;;;;6269016;28;20102;-80
2022/04/18 12:18:55;;;;;;;1.70;1.60;;;;;;;;;;6257840;28;20045;-79
2022/04/18 12:21:57;;;;;;;1.95;1.80;;;;;;;;;;6270924;28;20109;-80
2022/04/18 12:24:59;;;;;;;2.65;1.50;;;;;;;;;;6289170;28;20037;-80
2022/04/18 12:28:04;;;;;;;2.23;1.37;;;;;;;;;;6257739;28;20144;-80
2022/04/18 12:31:10;;;;;;;2.40;1.60;;;;;;;;;;6255317;28;20118;-79
2022/04/18 12:34:19;;;;;;;1.52;1.10;;;;;;;;;;6257626;28;20581;-79
2022/04/18 12:37:25;;;;;;;1.77;1.30;;;;;;;;;;6255787;28;20045;-79
2022/04/18 12:40:33;;;;;;;1.95;1.70;;;;;;;;;;6254840;28;20215;-79
2022/04/18 12:43:37;;;;;;;2.63;1.73;;;;;;;;;;6275606;28;20072;-80
2022/04/18 12:46:40;;;;;;;2.45;1.70;;;;;;;;;;6275472;28;20037;-79
2022/04/18 12:50:02;;;;;;;2.90;1.60;;;;;;;;;;6282039;28;20047;-80
2022/04/18 12:53:04;;;;;;;2.17;1.65;;;;;;;;;;6281452;28;20121;-80
2022/04/18 12:56:06;;;;;;;3.08;1.60;;;;;;;;;;6257017;28;20198;-79
2022/04/18 12:59:09;;;;;;;3.35;1.73;;;;;;;;;;6256944;28;20557;-79
2022/04/18 13:02:11;;;;;;;2.15;1.23;;;;;;;;;;6281864;28;20465;-79
2022/04/18 13:05:12;;;;;;;1.73;1.30;;;;;;;;;;6286529;28;20313;-80
2022/04/18 13:08:16;;;;;;;4.65;2.08;;;;;;;;;;6281554;28;20052;-79
2022/04/18 13:11:18;;;;;;;2.28;1.70;;;;;;;;;;6259018;28;20338;-80
2022/04/18 13:14:20;;;;;;;1.67;1.55;;;;;;;;;;6270224;28;20179;-79
2022/04/18 13:17:21;;;;;;;1.55;1.30;;;;;;;;;;6266552;28;20942;-79
2022/04/18 13:20:24;;;;;;;1.50;1.20;;;;;;;;;;6262773;28;20506;-81
2022/04/18 13:23:26;;;;;;;1.85;1.30;;;;;;;;;;6262816;28;20072;-80
2022/04/18 13:26:29;;;;;;;1.48;1.17;;;;;;;;;;6264200;28;20091;-80
2022/04/18 13:29:31;;;;;;;2.33;1.30;;;;;;;;;;6263205;28;20136;-79
2022/04/18 13:32:32;;;;;;;1.83;1.15;;;;;;;;;;6238554;28;20041;-79
2022/04/18 13:39:00;;;;;;;2.28;1.33;;;;;;;;;;6287494;28;20066;-81
2022/04/18 13:42:02;;;;;;;1.83;1.40;;;;;;;;;;6265751;28;20048;-80
2022/04/18 13:45:05;;;;;;;3.58;1.23;;;;;;;;;;6294152;28;20072;-79
2022/04/18 13:48:07;;;;;;;1.73;1.40;;;;;;;;;;6270750;28;20144;-80
2022/04/18 13:51:14;;;;;;;1.38;1.17;;;;;;;;;;6265600;28;20041;-79
2022/04/18 13:54:16;;;;;;;1.95;1.40;;;;;;;;;;6262575;28;20056;-79
2022/04/18 13:57:17;;;;;;;1.98;1.30;;;;;;;;;;6271819;28;20501;-79
2022/04/18 14:00:19;;;;;;;1.58;1.05;;;;;;;;;;6278396;28;20044;-78
2022/04/18 14:03:22;;;;;;;1.10;1.00;;;;;;;;;;6277580;28;20170;-78
2022/04/18 14:06:26;;;;;;;1.63;1.30;;;;;;;;;;6287003;28;20124;-79
2022/04/18 14:09:30;;;;;;;1.73;1.20;;;;;;;;;;6281521;28;20129;-79
2022/04/18 14:12:31;;;;;;;1.60;1.20;;;;;;;;;;6263282;28;20522;-79
2022/04/18 14:22:15;;;;;;;3.17;1.23;;;;;;;;;;6260697;28;20118;-79
2022/04/18 14:25:18;;;;;;;1.50;1.15;;;;;;;;;;6263490;28;20199;-79
2022/04/18 14:28:22;;;;;;;1.50;1.02;;;;;;;;;;6268519;28;20059;-79
2022/04/18 14:31:24;;;;;;;1.30;1.20;;;;;;;;;;6285148;27;20040;-79
2022/04/18 14:34:26;;;;;;;;;;;;;;;;;;6287521;28;20056;-81
2022/04/18 14:37:28;;;;;;;2.08;1.30;;;;;;;;;;6266378;28;20013;-79
2022/04/18 14:40:30;;;;;;;1.15;1.05;;;;;;;;;;6263922;28;20100;-79
2022/04/18 14:43:31;;;;;;;4.20;1.58;;;;;;;;;;6250585;28;20041;-79
2022/04/18 14:46:33;;;;;;;4.15;1.38;;;;;;;;;;6249435;28;20045;-77
2022/04/18 14:49:35;;;;;;;1.70;1.23;;;;;;;;;;6288473;28;20041;-79
2022/04/18 14:52:36;;;;;;;1.08;0.98;;;;;;;;;;6286359;28;20082;-78
2022/04/18 14:55:38;;;;;;;1.70;0.90;;;;;;;;;;6288126;28;20146;-78
2022/04/18 14:58:40;;;;;;;1.10;1.00;;;;;;;;;;6273894;28;20045;-79
2022/04/18 15:01:42;;;;;;;2.88;1.20;;;;;;;;;;6248814;28;20588;-80
2022/04/18 15:04:49;;;;;;;0.93;0.82;;;;;;;;;;6285834;28;20048;-80
2022/04/18 15:07:51;;;;;;;1.83;0.95;;;;;;;;;;6288134;28;20473;-79
2022/04/18 15:10:53;;;;;;;2.30;1.00;;;;;;;;;;6285777;28;20043;-80
2022/04/18 15:13:55;;;;;;;2.03;1.20;;;;;;;;;;6289540;28;20090;-79
2022/04/18 15:16:57;;;;;;;1.77;1.30;;;;;;;;;;6272108;28;20068;-79
2022/04/18 15:20:05;;;;;;;2.80;1.38;;;;;;;;;;6240168;28;20156;-80
2022/04/18 15:23:08;;;;;;;1.80;1.13;;;;;;;;;;6255445;28;20056;-80
2022/04/18 15:26:10;;;;;;;2.57;1.50;;;;;;;;;;6240756;28;20253;-82
2022/04/18 15:29:14;;;;;;;1.73;1.10;;;;;;;;;;6241258;28;20440;-79
2022/04/18 15:32:17;;;;;;;2.38;1.17;;;;;;;;;;6254332;28;20040;-78
2022/04/18 15:35:24;;;;;;;2.55;1.25;;;;;;;;;;6289355;28;20047;-79
2022/04/18 15:38:26;;;;;;;2.47;1.23;;;;;;;;;;6289093;28;20049;-79
2022/04/18 15:41:27;;;;;;;1.42;1.17;;;;;;;;;;6251834;28;20127;-79
2022/04/18 15:44:30;;;;;;;0.90;0.85;;;;;;;;;;6238920;28;20038;-80
2022/04/18 15:47:35;;;;;;;1.58;1.23;;;;;;;;;;6273851;28;20047;-79
2022/04/18 15:50:39;;;;;;;1.35;1.10;;;;;;;;;;6287865;28;20056;-79
2022/04/18 15:53:41;;;;;;;2.08;0.90;;;;;;;;;;6288446;28;20055;-79
2022/04/18 15:56:44;;;;;;;3.67;1.17;;;;;;;;;;6278094;28;20130;-79
2022/04/18 15:59:46;;;;;;;1.73;1.17;;;;;;;;;;6239394;28;20045;-79
2022/04/18 16:02:47;;;;;;;1.88;1.30;;;;;;;;;;6246105;28;20037;-79
2022/04/18 16:05:49;;;;;;;1.80;1.10;;;;;;;;;;6264710;28;20037;-80
2022/04/18 16:08:51;;;;;;;2.03;1.20;;;;;;;;;;6259324;28;20116;-82
2022/04/18 16:11:52;;;;;;;1.90;1.30;;;;;;;;;;6284041;28;20366;-80
2022/04/18 16:14:54;;;;;;;3.63;1.50;;;;;;;;;;6289990;28;20059;-79
2022/04/18 16:17:56;;;;;;;4.05;3.40;;;;;;;;;;6278884;28;20595;-81
2022/04/18 16:20:58;;;;;;;1.67;0.93;;;;;;;;;;6264898;28;20045;-80
2022/04/18 16:24:00;;;;;;;1.38;1.13;;;;;;;;;;6265217;28;20531;-80
2022/04/18 16:27:02;;;;;;;2.53;1.25;;;;;;;;;;6285833;28;20158;-81
2022/04/18 16:33:24;;;;;;;1.67;1.20;;;;;;;;;;6286932;28;20098;-80
2022/04/18 16:36:26;;;;;;;2.55;1.30;;;;;;;;;;6287699;28;20048;-81
2022/04/18 16:39:28;;;;;;;1.80;1.15;;;;;;;;;;6272259;28;20098;-80
2022/04/18 16:45:51;;;;;;;1.50;1.17;;;;;;;;;;6268101;28;20585;-82
2022/04/18 16:48:53;;;;;;;1.08;1.00;;;;;;;;;;6289524;28;20040;-81
2022/04/18 16:51:54;;;;;;;1.60;1.25;;;;;;;;;;6288746;28;20719;-80
2022/04/18 16:54:57;;;;;;;1.52;1.00;;;;;;;;;;6270513;28;20120;-80
2022/04/18 16:57:59;;;;;;;3.25;1.77;;;;;;;;;;6263830;28;20509;-80
2022/04/18 17:01:01;;;;;;;1.95;0.93;;;;;;;;;;6262427;28;20819;-80
2022/04/18 17:04:04;;;;;;;2.42;1.33;;;;;;;;;;6282901;28;20217;-82
2022/04/18 17:07:05;;;;;;;;;;;;;;;;;;6289088;28;20137;-81
2022/04/18 17:10:07;;;;;;;1.20;1.10;;;;;;;;;;6281693;28;19988;-80
2022/04/18 17:13:09;;;;;;;1.87;1.77;;;;;;;;;;6265092;28;20517;-82
2022/04/18 17:16:11;;;;;;;3.00;1.13;;;;;;;;;;6275217;28;20084;-80
2022/04/18 17:19:13;;;;;;;3.17;1.27;;;;;;;;;;6264315;28;20114;-79
2022/04/18 17:22:15;;;;;;;2.15;1.08;;;;;;;;;;6277117;28;20132;-82
2022/04/18 17:25:16;;;;;;;2.45;1.20;;;;;;;;;;6263214;28;20069;-79
2022/04/18 17:28:18;;;;;;;1.50;1.40;;;;;;;;;;6261765;28;20041;-78
2022/04/18 17:31:19;;;;;;;1.83;1.40;;;;;;;;;;6272109;28;20147;-81
2022/04/18 17:34:22;;;;;;;1.48;1.10;;;;;;;;;;6288301;28;20060;-79
2022/04/18 17:37:27;;;;;;;1.65;1.50;;;;;;;;;;6293226;28;20810;-79
2022/04/18 17:40:32;;;;;;;1.58;1.35;;;;;;;;;;6281045;28;20045;-79
2022/04/18 17:43:33;;;;;;;3.27;1.43;;;;;;;;;;6285367;28;20093;-79
2022/04/18 17:46:35;;;;;;;2.83;1.40;;;;;;;;;;6282485;28;20461;-79
2022/04/18 17:49:37;;;;;;;1.35;1.20;;;;;;;;;;6292102;28;20378;-79
2022/04/18 17:52:39;;;;;;;1.95;1.33;;;;;;;;;;6288396;28;20072;-78
2022/04/18 17:55:51;;;;;;;1.52;1.10;;;;;;;;;;6250621;28;20045;-79
2022/04/18 17:58:52;;;;;;;1.63;1.30;;;;;;;;;;6261987;28;20136;-79
2022/04/18 18:01:54;;;;;;;1.02;0.95;;;;;;;;;;6286418;28;20070;-79
2022/04/18 18:04:56;;;;;;;2.47;1.17;;;;;;;;;;6288212;28;20475;-80
2022/04/18 18:07:57;;;;;;;1.70;1.17;;;;;;;;;;6288792;28;20041;-78
2022/04/18 18:10:59;;;;;;;3.33;1.50;;;;;;;;;;6263010;28;20179;-78
2022/04/18 18:14:01;;;;;;;3.85;1.50;;;;;;;;;;6266142;28;20060;-81
2022/04/18 18:17:03;;;;;;;1.95;1.40;;;;;;;;;;6268664;28;20141;-78
2022/04/18 18:20:06;;;;;;;1.80;1.20;;;;;;;;;;6261003;28;20041;-78
2022/04/18 18:23:08;;;;;;;2.72;1.50;;;;;;;;;;6261150;28;20119;-78
2022/04/18 18:26:12;;;;;;;6.97;4.22;;;;;;;;;;6265469;28;20142;-79
2022/04/18 18:29:15;;;;;;;7.88;3.40;;;;;;;;;;6276318;28;20094;-78
2022/04/18 18:32:16;;;;;;;5.80;3.50;;;;;;;;;;6261861;28;20412;-78
2022/04/18 18:35:18;;;;;;;7.68;3.40;;;;;;;;;;6272939;28;20226;-80
2022/04/18 18:38:22;;;;;;;14.13;6.35;;;;;;;;;;6287515;28;20069;-79
2022/04/18 18:41:24;;;;;;;10.25;4.80;;;;;;;;;;6311763;28;20087;-78
2022/04/18 18:44:26;;;;;;;7.43;3.97;;;;;;;;;;6309606;28;20127;-78
2022/04/18 18:47:27;;;;;;;3.78;2.58;;;;;;;;;;6282857;28;20060;-80
2022/04/18 18:53:52;;;;;;;4.65;2.33;;;;;;;;;;6285695;28;20044;-78
2022/04/18 18:56:54;;;;;;;4.85;3.30;;;;;;;;;;6287260;28;20040;-81
2022/04/18 18:59:56;;;;;;;6.85;3.85;;;;;;;;;;6284466;28;20037;-78
2022/04/18 19:02:57;;;;;;;6.30;4.03;;;;;;;;;;6274481;28;20048;-78
2022/04/18 19:06:00;;;;;;;7.20;4.53;;;;;;;;;;6290377;28;20036;-79